Time;durP1;ratioP1;P1;durP2;ratioP2;P2;SDS_P1;SDS_P2;PMS_P1;PMS_P2;Temp;Humidity;BMP_temperature;BMP_pressure;BME280_temperature;BME280_humidity;BME280_pressure;Samples;Min_cycle;Max_cycle;Signal;HPM_P1;HPM_P2
2023/03/07 00:08:28;;;;;;;15.50;11.00;;;;;;;-2.21;93.69;98159.85;448550;1252;142434;-66
2023/03/07 00:18:34;;;;;;;16.60;10.30;;;;;;;-2.47;93.75;98164.66;440739;1254;141477;-65
2023/03/07 00:28:40;;;;;;;14.00;10.20;;;;;;;-2.47;94.11;98161.21;436035;1252;143653;-65
2023/03/07 00:38:46;;;;;;;14.60;9.90;;;;;;;-2.43;93.89;98150.65;435486;1257;141623;-66
2023/03/07 00:49:09;;;;;;;14.60;9.70;;;;;;;-2.42;93.76;98147.03;435004;1255;143177;-67
2023/03/07 00:59:16;;;;;;;14.80;10.50;;;;;;;-2.64;93.20;98145.00;440398;1255;147275;-67
2023/03/07 01:09:22;;;;;;;16.00;12.40;;;;;;;-2.99;93.24;98138.24;434062;1253;141787;-65
2023/03/07 01:19:28;;;;;;;15.80;11.30;;;;;;;-3.41;93.28;98131.31;432632;1256;143898;-66
2023/03/07 01:29:34;;;;;;;16.10;11.20;;;;;;;-3.85;93.30;98125.96;432769;1257;144575;-63
2023/03/07 01:39:39;;;;;;;18.30;12.40;;;;;;;-4.26;93.64;98118.90;436399;1257;142232;-66
2023/03/07 01:49:45;;;;;;;;;;;;;;;-4.52;93.98;98115.48;439340;1255;147240;-65
2023/03/07 01:59:54;;;;;;;14.40;11.60;;;;;;;-4.80;94.11;98109.19;442542;1256;128940;-65
2023/03/07 02:10:03;;;;;;;15.10;10.80;;;;;;;-5.09;94.19;98107.69;437755;1257;146298;-66
2023/03/07 02:20:26;;;;;;;16.50;11.50;;;;;;;-5.36;94.13;98106.29;434705;1256;141504;-65
2023/03/07 02:30:32;;;;;;;19.20;12.70;;;;;;;-5.56;94.26;98107.77;435747;1257;143867;-65
2023/03/07 02:40:38;;;;;;;21.00;14.50;;;;;;;-5.82;94.44;98109.48;434191;1255;141421;-65
2023/03/07 02:51:01;;;;;;;17.70;12.90;;;;;;;-6.09;94.60;98098.52;433179;1258;140460;-65
2023/03/07 03:01:31;;;;;;;23.40;14.80;;;;;;;-6.41;94.42;98090.46;434375;1257;142431;-66
2023/03/07 03:11:37;;;;;;;20.30;15.00;;;;;;;-6.50;94.75;98078.36;433714;1258;142961;-65
2023/03/07 03:33:18;;;;;;;27.20;19.60;;;;;;;-6.48;95.22;98073.91;435531;1256;185446;-65
2023/03/07 03:43:24;;;;;;;35.80;24.50;;;;;;;-6.37;95.01;98066.52;432511;1256;184981;-65
2023/03/07 03:53:31;;;;;;;42.80;27.90;;;;;;;-6.42;94.77;98056.08;441639;1256;142126;-65
2023/03/07 04:03:38;;;;;;;42.80;31.40;;;;;;;-6.56;95.11;98059.08;447330;1255;142500;-66
2023/03/07 04:13:44;;;;;;;41.00;28.40;;;;;;;-6.72;95.14;98057.84;438492;1255;141491;-66
2023/03/07 04:23:54;;;;;;;40.70;28.30;;;;;;;-6.91;95.30;98051.88;441044;1256;141642;-66
2023/03/07 04:34:00;;;;;;;39.00;30.30;;;;;;;-7.03;95.30;98048.00;437126;1253;143559;-65
2023/03/07 04:44:05;;;;;;;39.00;27.20;;;;;;;-6.95;95.62;98050.09;434938;1257;145559;-66
2023/03/07 04:54:11;;;;;;;45.90;30.30;;;;;;;-6.66;95.86;98049.20;435210;1256;141456;-65
2023/03/07 05:04:17;;;;;;;34.40;26.20;;;;;;;-6.20;96.89;98042.17;433026;1257;143742;-66
2023/03/07 05:14:23;;;;;;;43.90;28.20;;;;;;;-5.79;97.05;98039.55;444557;1256;143127;-66
2023/03/07 05:24:29;;;;;;;51.30;35.70;;;;;;;-5.43;97.06;98033.09;436416;1255;143224;-65
2023/03/07 05:34:36;;;;;;;37.70;25.90;;;;;;;-5.13;97.38;98026.89;445066;1256;143328;-66
2023/03/07 05:44:43;;;;;;;37.80;27.40;;;;;;;-4.69;97.82;98022.52;433842;1256;142680;-67
2023/03/07 05:54:48;;;;;;;39.00;25.90;;;;;;;-4.29;97.96;98006.70;443254;1254;144090;-66
2023/03/07 06:04:56;;;;;;;35.20;23.90;;;;;;;-3.99;97.69;98002.92;449112;1253;142212;-66
2023/03/07 06:15:02;;;;;;;33.00;22.10;;;;;;;-3.70;97.73;97995.89;443514;1254;142157;-66
2023/03/07 06:25:10;;;;;;;34.70;22.30;;;;;;;-3.36;97.79;97985.90;449068;1254;143024;-66
2023/03/07 06:35:16;;;;;;;38.70;25.30;;;;;;;-2.85;98.15;97985.38;449908;1254;142509;-66
2023/03/07 06:45:21;;;;;;;37.20;23.90;;;;;;;-2.33;97.88;97972.02;449875;1253;144430;-67
2023/03/07 06:55:27;;;;;;;35.00;22.70;;;;;;;-1.76;97.47;97963.50;449057;1254;145153;-67
2023/03/07 07:05:33;;;;;;;29.00;19.10;;;;;;;-1.14;97.92;97949.48;449969;1254;143600;-67
2023/03/07 07:15:38;;;;;;;26.40;18.40;;;;;;;-0.19;97.54;97943.27;441919;1256;143288;-65
2023/03/07 07:25:44;;;;;;;31.80;18.80;;;;;;;-0.10;96.90;97938.19;444044;1254;142480;-66
2023/03/07 07:35:50;;;;;;;31.20;18.80;;;;;;;0.25;97.18;97927.92;449811;1254;141860;-66
2023/03/07 07:45:55;;;;;;;30.30;18.90;;;;;;;0.73;96.93;97922.31;449150;1253;202557;-66
2023/03/07 07:56:01;;;;;;;29.70;20.30;;;;;;;1.82;97.01;97905.98;449798;1252;142829;-66
2023/03/07 08:06:07;;;;;;;28.60;22.10;;;;;;;6.88;96.02;97862.08;449866;1254;142365;-67
2023/03/07 08:16:15;;;;;;;21.80;19.20;;;;;;;13.21;86.26;97837.19;445748;1254;143275;-67
2023/03/07 08:26:21;;;;;;;19.70;17.70;;;;;;;15.65;77.38;97821.73;449755;1254;141630;-67
2023/03/07 08:36:26;;;;;;;20.70;18.00;;;;;;;16.40;70.10;97816.92;449460;1254;145345;-67
2023/03/07 08:46:32;;;;;;;22.20;19.90;;;;;;;15.12;67.13;97819.89;448698;1254;143029;-67
2023/03/07 08:56:38;;;;;;;22.20;17.50;;;;;;;13.25;66.32;97825.42;449509;1254;141946;-67
2023/03/07 09:06:44;;;;;;;20.50;18.30;;;;;;;12.34;65.82;97818.92;449505;1254;143520;-67
2023/03/07 09:16:50;;;;;;;20.10;17.90;;;;;;;11.24;65.50;97804.25;445263;1254;210070;-66
2023/03/07 09:26:56;;;;;;;21.30;18.10;;;;;;;9.64;65.76;97795.33;449609;1254;143838;-66
2023/03/07 09:37:02;;;;;;;20.40;16.90;;;;;;;8.69;66.86;97788.53;449054;1254;144719;-66
2023/03/07 09:47:25;;;;;;;21.80;17.00;;;;;;;8.05;67.44;97764.67;449963;1253;141908;-67
2023/03/07 09:57:33;;;;;;;23.00;17.20;;;;;;;7.86;67.65;97743.29;449813;1253;141309;-66
2023/03/07 10:07:39;;;;;;;22.10;17.40;;;;;;;7.26;68.30;97728.90;445023;1254;142036;-66
2023/03/07 10:17:56;;;;;;;19.60;15.80;;;;;;;7.31;69.16;97712.13;449798;1253;142645;-67
2023/03/07 10:28:17;;;;;;;19.80;15.60;;;;;;;7.94;68.38;97700.77;449121;1252;142746;-66
2023/03/07 10:38:32;;;;;;;17.30;14.50;;;;;;;8.02;67.41;97677.09;449905;1252;142577;-66
2023/03/07 10:48:39;;;;;;;17.50;13.20;;;;;;;7.45;67.29;97664.90;442385;1253;141565;-66
2023/03/07 11:09:22;;;;;;;13.10;11.60;;;;;;;7.05;67.02;97627.23;435676;1295;599412;-66
2023/03/07 11:19:37;;;;;;;11.70;9.70;;;;;;;6.69;66.38;97609.24;445506;1264;140358;-65
2023/03/07 11:29:43;;;;;;;11.30;10.10;;;;;;;6.66;66.03;97596.45;447806;1262;141065;-67
2023/03/07 11:39:59;;;;;;;12.50;8.60;;;;;;;6.49;65.18;97582.81;447121;1262;141242;-66
2023/03/07 11:50:21;;;;;;;11.00;8.90;;;;;;;6.28;65.40;97578.48;447572;1263;140757;-67
2023/03/07 12:00:34;;;;;;;9.30;7.70;;;;;;;6.44;64.94;97567.55;447375;1266;139957;-66
2023/03/07 12:10:50;;;;;;;12.40;8.10;;;;;;;6.18;64.28;97566.81;446766;1263;140784;-66
2023/03/07 12:21:10;;;;;;;18.30;11.20;;;;;;;5.57;64.39;97559.27;441857;1263;139577;-66
2023/03/07 12:31:22;;;;;;;10.50;9.00;;;;;;;5.35;64.98;97562.45;446514;1263;140157;-66
2023/03/07 12:41:43;;;;;;;12.10;9.10;;;;;;;5.05;65.86;97568.50;447344;1263;140855;-66
2023/03/07 12:51:53;;;;;;;14.50;9.80;;;;;;;4.67;67.32;97567.95;446506;1263;141270;-66
2023/03/07 13:02:04;;;;;;;12.50;9.40;;;;;;;4.23;68.68;97572.73;447430;1263;140788;-67
2023/03/07 13:12:29;;;;;;;12.80;9.60;;;;;;;4.01;69.82;97563.51;435013;1264;143057;-67
2023/03/07 13:23:00;;;;;;;12.10;9.40;;;;;;;4.00;70.36;97556.52;446524;1262;141322;-67
2023/03/07 13:33:26;;;;;;;13.00;9.90;;;;;;;4.04;70.55;97547.27;447330;1264;142260;-67
2023/03/07 13:44:02;;;;;;;15.00;9.80;;;;;;;4.19;70.57;97538.73;446556;1262;141261;-67
2023/03/07 13:54:13;;;;;;;13.10;10.70;;;;;;;4.32;70.30;97529.17;447349;1262;140438;-67
2023/03/07 14:04:23;;;;;;;16.00;10.50;;;;;;;4.51;70.26;97517.61;446563;1263;141495;-67
2023/03/07 14:14:59;;;;;;;13.80;10.20;;;;;;;4.59;70.48;97511.31;446670;1262;141103;-66
2023/03/07 14:25:22;;;;;;;13.80;9.80;;;;;;;4.53;70.20;97499.77;448032;1256;141425;-66
2023/03/07 14:35:40;;;;;;;13.60;9.50;;;;;;;4.50;70.35;97485.27;450411;1251;140464;-66
2023/03/07 14:45:53;;;;;;;11.80;9.20;;;;;;;4.43;70.11;97485.59;450256;1251;141326;-66
2023/03/07 14:55:59;;;;;;;15.20;8.40;;;;;;;4.36;70.35;97478.66;449844;1252;196870;-67
2023/03/07 15:06:13;;;;;;;11.20;8.80;;;;;;;4.33;70.25;97478.54;450319;1251;141412;-66
2023/03/07 15:16:23;;;;;;;10.00;7.50;;;;;;;4.29;70.72;97479.83;446097;1251;142276;-66
2023/03/07 15:26:32;;;;;;;11.30;7.20;;;;;;;4.22;70.62;97464.63;450178;1252;141102;-67
2023/03/07 15:36:38;;;;;;;11.70;7.20;;;;;;;4.11;70.74;97456.69;450279;1251;141196;-67
2023/03/07 15:46:47;;;;;;;11.80;8.10;;;;;;;3.97;70.72;97445.55;449561;1251;142430;-66
2023/03/07 15:56:59;;;;;;;12.50;8.90;;;;;;;3.78;71.66;97446.85;440672;1250;141179;-67
2023/03/07 16:07:06;;;;;;;11.50;8.40;;;;;;;3.63;72.05;97433.38;449226;1253;141075;-67
2023/03/07 16:17:20;;;;;;;11.70;7.50;;;;;;;3.50;72.86;97417.17;450122;1252;140973;-67
2023/03/07 16:27:25;;;;;;;15.80;11.30;;;;;;;3.40;72.86;97408.52;450153;1251;142204;-67
2023/03/07 16:37:31;;;;;;;11.30;8.50;;;;;;;3.36;73.59;97413.80;449416;1251;142333;-67
2023/03/07 16:47:37;;;;;;;11.30;9.10;;;;;;;3.32;73.97;97409.78;450182;1252;141601;-66
2023/03/07 16:57:44;;;;;;;12.10;8.20;;;;;;;3.32;74.58;97414.44;450133;1252;141869;-68
2023/03/07 17:07:51;;;;;;;12.70;10.00;;;;;;;3.32;74.90;97417.71;449750;1253;210580;-70
2023/03/07 17:17:57;;;;;;;11.30;9.00;;;;;;;3.34;75.21;97410.48;450377;1251;141860;-67
2023/03/07 17:28:06;;;;;;;11.90;9.20;;;;;;;3.32;75.49;97420.67;449647;1251;142892;-67
2023/03/07 17:38:12;;;;;;;10.70;8.00;;;;;;;3.28;76.22;97416.12;450369;1252;141133;-66
2023/03/07 17:48:18;;;;;;;19.20;15.00;;;;;;;3.21;76.82;97414.49;450444;1251;140747;-68
2023/03/07 17:58:23;;;;;;;13.20;9.10;;;;;;;3.10;77.50;97410.55;449631;1251;143139;-67
2023/03/07 18:08:29;;;;;;;13.00;10.50;;;;;;;3.03;78.25;97403.80;450344;1251;142039;-67
2023/03/07 18:18:37;;;;;;;18.20;13.70;;;;;;;3.01;78.61;97399.09;450344;1251;145250;-67
2023/03/07 18:28:46;;;;;;;15.40;9.20;;;;;;;3.07;78.94;97400.20;449498;1252;143608;-67
2023/03/07 18:38:52;;;;;;;16.30;10.10;;;;;;;3.13;79.05;97395.87;450405;1251;141974;-66
2023/03/07 18:48:59;;;;;;;13.40;8.80;;;;;;;3.16;79.18;97390.10;449551;1250;142288;-67
2023/03/07 18:59:03;;;;;;;;;;;;;;;3.24;79.50;97390.63;450344;1252;142325;-66
2023/03/07 19:09:13;;;;;;;10.40;6.50;;;;;;;3.29;79.48;97395.83;450685;1253;128409;-67
2023/03/07 19:19:19;;;;;;;17.40;10.90;;;;;;;3.27;79.98;97398.72;449664;1253;143279;-66
2023/03/07 19:29:24;;;;;;;11.40;6.40;;;;;;;3.24;80.50;97398.77;450372;1252;141908;-66
2023/03/07 19:39:30;;;;;;;5.30;4.20;;;;;;;3.26;80.78;97388.21;450473;1251;141873;-65
2023/03/07 19:49:36;;;;;;;10.70;7.30;;;;;;;3.31;81.02;97387.33;449570;1252;141659;-67
2023/03/07 19:59:41;;;;;;;9.70;6.70;;;;;;;3.30;81.46;97387.26;450190;1253;141521;-67
2023/03/07 20:09:50;;;;;;;17.10;9.10;;;;;;;3.32;80.87;97381.21;449669;1251;142049;-66
2023/03/07 20:19:56;;;;;;;6.20;4.90;;;;;;;3.46;80.34;97381.81;450211;1252;141390;-66
2023/03/07 20:30:03;;;;;;;5.10;4.00;;;;;;;3.56;79.75;97384.39;450266;1253;141561;-65
2023/03/07 20:40:11;;;;;;;11.40;6.50;;;;;;;3.55;80.08;97382.63;447913;1251;141612;-66
2023/03/07 20:50:17;;;;;;;7.70;6.60;;;;;;;3.50;80.30;97392.41;450286;1252;141160;-68
2023/03/07 21:00:24;;;;;;;8.20;5.50;;;;;;;3.38;81.35;97394.15;450325;1253;142068;-65
2023/03/07 21:10:30;;;;;;;8.10;5.10;;;;;;;3.14;82.90;97401.65;449426;1253;141575;-66
2023/03/07 21:20:38;;;;;;;14.40;9.20;;;;;;;2.89;84.13;97410.94;450267;1251;142155;-67
2023/03/07 21:30:45;;;;;;;9.00;6.90;;;;;;;2.71;85.31;97411.61;450296;1251;141945;-66
2023/03/07 21:40:54;;;;;;;10.00;7.70;;;;;;;2.59;86.19;97426.55;449993;1253;197465;-66
2023/03/07 21:51:01;;;;;;;5.50;4.10;;;;;;;2.36;86.65;97459.33;450354;1253;141961;-66
2023/03/07 22:01:12;;;;;;;2.90;2.50;;;;;;;1.69;86.98;97476.41;449588;1252;141138;-66
2023/03/07 22:11:18;;;;;;;1.70;1.40;;;;;;;1.02;87.68;97490.55;445854;1251;141076;-66
2023/03/07 22:21:25;;;;;;;2.60;1.60;;;;;;;0.64;88.18;97494.11;450359;1251;143944;-66
2023/03/07 22:31:31;;;;;;;2.20;1.70;;;;;;;0.52;88.78;97490.31;449664;1252;143835;-66
2023/03/07 22:41:37;;;;;;;3.40;1.50;;;;;;;0.30;89.29;97489.28;450382;1254;142328;-66
2023/03/07 22:51:43;;;;;;;4.30;1.70;;;;;;;0.26;89.76;97487.31;440655;1253;144400;-66
2023/03/07 23:01:49;;;;;;;3.00;2.80;;;;;;;0.21;90.26;97490.15;434832;1253;209065;-66
2023/03/07 23:11:56;;;;;;;3.50;3.20;;;;;;;-0.02;90.54;97499.66;438344;1253;140047;-67
2023/03/07 23:22:02;;;;;;;3.60;3.30;;;;;;;-0.20;91.08;97509.91;437743;1254;142116;-65
2023/03/07 23:32:08;;;;;;;4.00;3.50;;;;;;;-0.36;91.69;97515.74;438948;1256;140563;-67
2023/03/07 23:42:18;;;;;;;4.90;3.80;;;;;;;-0.39;92.12;97515.73;434149;1254;141764;-67
2023/03/07 23:52:23;;;;;;;3.80;2.90;;;;;;;-0.49;92.46;97533.09;435002;1253;140753;-66
